createdAt,value
2023-09-28T00:01:18.965Z,5.68
2023-09-28T00:03:46.606Z,5.38
2023-09-28T00:06:13.640Z,5.53
2023-09-28T00:08:40.371Z,5.00
2023-09-28T00:11:07.159Z,5.20
2023-09-28T00:13:33.807Z,5.60
2023-09-28T00:16:00.426Z,5.60
2023-09-28T00:18:27.078Z,5.82
2023-09-28T00:20:53.812Z,5.38
2023-09-28T00:23:20.537Z,6.30
2023-09-28T00:25:48.103Z,5.43
2023-09-28T00:28:14.843Z,5.70
2023-09-28T00:30:43.497Z,5.05
2023-09-28T00:33:10.243Z,5.22
2023-09-28T00:35:37.374Z,5.13
2023-09-28T00:38:04.399Z,6.03
2023-09-28T00:40:34.046Z,5.95
2023-09-28T00:43:02.831Z,6.72
2023-09-28T00:45:29.982Z,5.95
2023-09-28T00:48:06.312Z,6.40
2023-09-28T00:50:33.659Z,5.78
2023-09-28T00:53:03.487Z,7.15
2023-09-28T00:55:31.935Z,6.28
2023-09-28T00:58:01.472Z,7.28
2023-09-28T01:00:30.564Z,6.85
2023-09-28T01:02:58.853Z,6.63
2023-09-28T01:05:28.008Z,7.03
2023-09-28T01:07:56.678Z,7.15
2023-09-28T01:10:26.439Z,7.30
2023-09-28T01:12:53.069Z,7.38
2023-09-28T01:15:20.497Z,7.68
2023-09-28T01:17:47.195Z,7.88
2023-09-28T01:20:20.440Z,7.88
2023-09-28T01:22:49.942Z,7.50
2023-09-28T01:25:22.524Z,7.50
2023-09-28T01:27:50.819Z,7.22
2023-09-28T01:30:17.487Z,8.00
2023-09-28T01:32:44.380Z,7.70
2023-09-28T01:35:14.140Z,7.90
2023-09-28T01:38:06.451Z,8.52
2023-09-28T01:40:33.168Z,8.13
2023-09-28T01:42:59.760Z,7.47
2023-09-28T01:45:26.438Z,7.45
2023-09-28T01:47:53.234Z,7.55
2023-09-28T01:50:19.913Z,7.38
2023-09-28T01:52:46.880Z,7.60
2023-09-28T01:55:13.542Z,7.30
2023-09-28T01:57:40.229Z,7.45
2023-09-28T02:00:19.664Z,7.72
2023-09-28T02:02:47.722Z,7.80
2023-09-28T02:05:19.161Z,7.75
2023-09-28T02:07:46.610Z,7.93
2023-09-28T02:10:13.793Z,7.88
2023-09-28T02:12:41.255Z,7.85
2023-09-28T02:15:10.416Z,7.45
2023-09-28T02:17:38.156Z,7.25
2023-09-28T02:20:12.056Z,7.68
2023-09-28T02:22:44.595Z,7.65
2023-09-28T02:25:16.763Z,8.45
2023-09-28T02:27:43.744Z,7.95
2023-09-28T02:30:16.090Z,8.05
2023-09-28T02:32:49.464Z,8.65
2023-09-28T02:35:18.257Z,8.23
2023-09-28T02:37:47.244Z,8.50
2023-09-28T02:40:16.117Z,8.93
2023-09-28T02:42:44.057Z,8.68
2023-09-28T02:45:14.368Z,8.75
2023-09-28T02:47:42.862Z,8.55
2023-09-28T02:50:11.183Z,9.18
2023-09-28T02:52:39.681Z,8.95
2023-09-28T02:55:08.765Z,8.52
2023-09-28T02:57:36.717Z,8.73
2023-09-28T03:00:14.226Z,8.35
2023-09-28T03:02:40.892Z,7.88
2023-09-28T03:05:08.564Z,8.55
2023-09-28T03:07:35.592Z,8.57
2023-09-28T03:10:05.613Z,7.57
2023-09-28T03:12:32.218Z,8.57
2023-09-28T03:14:58.892Z,8.90
2023-09-28T03:17:25.569Z,9.40
2023-09-28T03:19:52.332Z,8.82
2023-09-28T03:22:20.805Z,9.32
2023-09-28T03:24:47.948Z,9.90
2023-09-28T03:27:14.528Z,9.95
2023-09-28T03:29:42.995Z,10.30
2023-09-28T03:32:09.908Z,9.73
2023-09-28T03:34:38.082Z,9.75
2023-09-28T03:37:05.596Z,9.70
2023-09-28T03:39:32.355Z,9.80
2023-09-28T03:41:58.934Z,9.57
2023-09-28T03:44:25.880Z,10.02
2023-09-28T03:46:52.756Z,11.05
2023-09-28T03:49:19.427Z,9.68
2023-09-28T03:51:46.103Z,10.13
2023-09-28T03:54:12.799Z,10.90
2023-09-28T03:56:39.992Z,10.07
2023-09-28T03:59:07.458Z,9.88
2023-09-28T04:01:34.967Z,10.20
2023-09-28T04:04:01.669Z,10.50
2023-09-28T04:06:28.274Z,9.80
2023-09-28T04:08:54.971Z,10.25
2023-09-28T04:11:21.824Z,10.07
2023-09-28T04:13:48.464Z,10.38
2023-09-28T04:16:15.693Z,9.77
2023-09-28T04:18:42.302Z,9.30
2023-09-28T04:21:09.119Z,10.18
2023-09-28T04:23:35.765Z,9.55
2023-09-28T04:26:02.364Z,9.20
2023-09-28T04:28:29.020Z,9.55
2023-09-28T04:30:55.651Z,9.52
2023-09-28T04:33:22.340Z,8.95
2023-09-28T04:35:50.770Z,9.75
2023-09-28T04:38:18.024Z,10.48
2023-09-28T04:40:44.729Z,10.15
2023-09-28T04:43:11.367Z,9.73
2023-09-28T04:45:39.340Z,9.68
2023-09-28T04:48:06.209Z,10.32
2023-09-28T04:50:32.894Z,10.05
2023-09-28T04:52:59.906Z,9.30
2023-09-28T04:55:26.606Z,9.65
2023-09-28T04:57:54.285Z,9.95
2023-09-28T05:00:21.279Z,10.30
2023-09-28T05:02:48.687Z,9.27
2023-09-28T05:05:16.322Z,9.27
2023-09-28T05:07:43.897Z,8.60
2023-09-28T05:10:10.668Z,9.18
2023-09-28T05:12:37.279Z,10.00
2023-09-28T05:15:04.705Z,9.40
2023-09-28T05:17:33.167Z,9.73
2023-09-28T05:20:00.034Z,10.75
2023-09-28T05:22:27.468Z,8.88
2023-09-28T05:24:54.928Z,9.32
2023-09-28T05:27:21.953Z,9.27
2023-09-28T05:29:48.557Z,9.82
2023-09-28T05:32:15.235Z,10.27
2023-09-28T05:34:41.926Z,8.85
2023-09-28T05:37:08.510Z,9.60
2023-09-28T05:39:35.118Z,10.82
2023-09-28T05:42:02.814Z,9.45
2023-09-28T05:44:30.626Z,9.95
2023-09-28T05:46:57.556Z,10.63
2023-09-28T05:49:24.340Z,9.73
2023-09-28T05:51:51.075Z,10.23
2023-09-28T05:54:17.814Z,9.57
2023-09-28T05:56:45.692Z,9.75
2023-09-28T05:59:12.307Z,9.38
2023-09-28T06:01:39.001Z,9.88
2023-09-28T06:04:07.021Z,9.23
2023-09-28T06:06:33.678Z,9.38
2023-09-28T06:09:00.337Z,9.90
2023-09-28T06:11:27.118Z,9.93
2023-09-28T06:16:26.726Z,9.60
2023-09-28T06:18:55.261Z,9.25
2023-09-28T06:21:22.018Z,9.70
2023-09-28T06:23:49.332Z,9.95
2023-09-28T06:26:26.039Z,9.65
2023-09-28T06:29:02.204Z,8.73
2023-09-28T06:31:29.097Z,9.70
2023-09-28T06:33:55.789Z,9.70
2023-09-28T06:36:39.863Z,9.77
2023-09-28T06:39:09.612Z,9.60
2023-09-28T06:41:36.221Z,10.13
2023-09-28T06:44:03.065Z,9.40
2023-09-28T06:46:29.969Z,9.45
2023-09-28T06:48:56.984Z,9.10
2023-09-28T06:51:23.838Z,7.97
2023-09-28T06:53:50.620Z,9.05
2023-09-28T06:56:17.658Z,8.65
2023-09-28T06:58:44.603Z,8.63
2023-09-28T07:01:11.580Z,7.03
2023-09-28T07:03:38.307Z,8.00
2023-09-28T07:06:06.699Z,7.90
2023-09-28T07:08:33.609Z,7.47
2023-09-28T07:11:00.544Z,7.97
2023-09-28T07:13:28.083Z,7.72
2023-09-28T07:15:58.314Z,7.72
2023-09-28T07:18:26.885Z,7.15
2023-09-28T07:20:53.758Z,6.88
2023-09-28T07:23:20.439Z,7.50
2023-09-28T07:25:47.166Z,8.07
2023-09-28T07:28:13.780Z,6.93
2023-09-28T07:30:40.402Z,6.80
2023-09-28T07:33:08.289Z,7.68
2023-09-28T07:35:35.165Z,7.80
2023-09-28T07:38:01.955Z,8.00
2023-09-28T07:40:36.551Z,7.82
2023-09-28T07:43:13.344Z,7.05
2023-09-28T07:45:41.890Z,7.75
2023-09-28T07:48:08.746Z,7.22
2023-09-28T07:50:35.502Z,8.10
2023-09-28T07:53:02.212Z,8.13
2023-09-28T07:55:28.928Z,7.70
2023-09-28T07:58:02.307Z,7.35
2023-09-28T08:00:35.126Z,8.32
2023-09-28T08:03:01.867Z,6.90
2023-09-28T08:05:28.676Z,8.05
2023-09-28T08:08:10.242Z,7.72
2023-09-28T08:10:41.135Z,7.60
2023-09-28T08:13:07.803Z,7.78
2023-09-28T08:15:37.204Z,7.55
2023-09-28T08:18:04.757Z,7.68
2023-09-28T08:20:34.939Z,6.78
2023-09-28T08:23:04.742Z,7.10
2023-09-28T08:25:32.205Z,7.63
2023-09-28T08:27:58.940Z,6.65
2023-09-28T08:30:25.575Z,7.20
2023-09-28T08:32:55.204Z,6.60
2023-09-28T08:35:22.285Z,6.93
2023-09-28T08:37:49.122Z,7.00
2023-09-28T08:40:15.838Z,6.38
2023-09-28T08:42:46.895Z,7.38
2023-09-28T08:45:17.212Z,6.60
2023-09-28T08:47:49.685Z,6.43
2023-09-28T08:50:22.770Z,6.22
2023-09-28T08:52:51.783Z,6.38
2023-09-28T08:55:22.100Z,6.78
2023-09-28T08:57:49.398Z,5.85
2023-09-28T09:00:16.806Z,6.22
2023-09-28T09:02:44.650Z,5.85
2023-09-28T09:05:14.594Z,6.30
2023-09-28T09:07:45.005Z,6.18
2023-09-28T09:10:14.081Z,6.10
2023-09-28T09:12:40.828Z,6.03
2023-09-28T09:15:08.220Z,6.47
2023-09-28T09:17:36.503Z,5.82
2023-09-28T09:20:06.521Z,6.63
2023-09-28T09:22:44.849Z,5.38
2023-09-28T09:25:13.326Z,6.13
2023-09-28T09:27:39.911Z,6.50
2023-09-28T09:30:09.152Z,7.00
2023-09-28T09:32:39.127Z,5.60
2023-09-28T09:35:08.271Z,6.13
2023-09-28T09:37:35.192Z,6.03
2023-09-28T09:40:13.518Z,5.15
2023-09-28T09:42:40.341Z,5.20
2023-09-28T09:45:08.412Z,5.00
2023-09-28T09:47:35.777Z,5.47
2023-09-28T09:50:03.455Z,5.47
2023-09-28T09:52:31.558Z,5.13
2023-09-28T09:54:58.242Z,5.40
2023-09-28T09:57:25.322Z,4.88
2023-09-28T09:59:54.514Z,4.85
2023-09-28T10:02:26.507Z,4.05
2023-09-28T10:04:57.528Z,4.30
2023-09-28T10:07:45.364Z,4.25
2023-09-28T10:10:15.537Z,3.72
2023-09-28T10:12:42.433Z,4.00
2023-09-28T10:15:10.676Z,4.05
2023-09-28T10:17:37.909Z,3.95
2023-09-28T10:20:08.174Z,3.75
2023-09-28T10:22:35.390Z,4.05
2023-09-28T10:25:01.992Z,3.60
2023-09-28T10:27:30.699Z,3.75
2023-09-28T10:30:19.986Z,3.72
2023-09-28T10:32:47.585Z,4.13
2023-09-28T10:35:29.680Z,4.05
2023-09-28T10:38:17.069Z,4.15
2023-09-28T10:40:50.888Z,4.22
2023-09-28T10:43:31.093Z,4.03
2023-09-28T10:46:08.300Z,3.97
2023-09-28T10:48:46.357Z,4.38
2023-09-28T10:51:16.532Z,3.42
2023-09-28T10:53:44.326Z,4.45
2023-09-28T10:56:11.862Z,4.28
2023-09-28T10:58:39.994Z,4.35
2023-09-28T11:01:07.797Z,4.40
2023-09-28T11:03:36.665Z,4.30
2023-09-28T11:06:06.003Z,3.97
2023-09-28T11:08:33.793Z,3.95
2023-09-28T11:11:03.111Z,4.43
2023-09-28T11:13:31.069Z,4.00
2023-09-28T11:15:58.825Z,3.78
2023-09-28T11:18:29.627Z,3.70
2023-09-28T11:21:00.681Z,3.88
2023-09-28T11:23:28.841Z,4.10
2023-09-28T11:25:56.481Z,4.38
2023-09-28T11:28:24.660Z,4.30
2023-09-28T11:31:09.627Z,3.95
2023-09-28T11:33:40.320Z,3.60
2023-09-28T11:36:24.122Z,4.22
2023-09-28T11:38:53.719Z,4.15
2023-09-28T11:41:22.351Z,4.05
2023-09-28T11:43:59.095Z,4.05
2023-09-28T11:46:32.460Z,4.45
2023-09-28T11:49:06.093Z,4.00
2023-09-28T11:51:37.358Z,4.10
2023-09-28T11:54:08.287Z,3.80
2023-09-28T11:56:35.637Z,4.40
2023-09-28T11:59:02.359Z,3.85
2023-09-28T12:01:29.836Z,4.15
2023-09-28T12:03:58.559Z,3.67
2023-09-28T12:06:25.749Z,3.55
2023-09-28T12:08:52.657Z,3.90
2023-09-28T12:11:19.388Z,3.70
2023-09-28T12:13:47.738Z,3.47
2023-09-28T12:16:14.569Z,3.80
2023-09-28T12:18:41.292Z,3.45
2023-09-28T12:21:08.266Z,3.42
2023-09-28T12:23:34.904Z,3.60
2023-09-28T12:26:02.852Z,3.60
2023-09-28T12:28:29.802Z,3.55
2023-09-28T12:30:57.617Z,3.40
2023-09-28T12:33:24.674Z,3.50
2023-09-28T12:35:51.453Z,3.35
2023-09-28T12:38:18.735Z,3.97
2023-09-28T12:40:47.947Z,3.15
2023-09-28T12:43:14.512Z,3.47
2023-09-28T12:45:42.951Z,3.28
2023-09-28T12:48:11.176Z,3.28
2023-09-28T12:50:38.335Z,3.58
2023-09-28T12:53:05.310Z,3.15
2023-09-28T12:55:32.019Z,3.85
2023-09-28T12:57:58.820Z,3.20
2023-09-28T13:00:26.344Z,2.90
2023-09-28T13:02:53.929Z,3.33
2023-09-28T13:05:21.006Z,3.45
2023-09-28T13:07:48.515Z,3.60
2023-09-28T13:10:23.150Z,3.53
2023-09-28T13:12:52.583Z,3.17
2023-09-28T13:15:19.304Z,3.17
2023-09-28T13:17:46.240Z,3.75
2023-09-28T13:20:25.554Z,3.30
2023-09-28T13:22:54.965Z,3.60
2023-09-28T13:25:24.100Z,3.20
2023-09-28T13:27:54.435Z,3.10
2023-09-28T13:30:24.095Z,3.97
2023-09-28T13:32:52.597Z,3.85
2023-09-28T13:35:20.899Z,4.10
2023-09-28T13:37:48.041Z,4.50
2023-09-28T13:40:23.465Z,3.90
2023-09-28T13:42:52.084Z,3.80
2023-09-28T13:45:18.985Z,4.03
2023-09-28T13:47:46.557Z,4.30
2023-09-28T13:50:13.529Z,3.58
2023-09-28T13:52:40.345Z,4.25
2023-09-28T13:55:08.026Z,3.92
2023-09-28T13:57:35.094Z,4.15
2023-09-28T14:00:04.117Z,3.75
2023-09-28T14:02:30.932Z,3.80
2023-09-28T14:04:57.587Z,4.38
2023-09-28T14:07:24.230Z,3.70
2023-09-28T14:09:52.373Z,4.13
2023-09-28T14:12:20.139Z,3.85
2023-09-28T14:14:46.722Z,4.50
2023-09-28T14:17:21.769Z,3.80
2023-09-28T14:19:58.892Z,4.00
2023-09-28T14:22:25.605Z,4.03
2023-09-28T14:24:52.162Z,4.10
2023-09-28T14:27:18.794Z,3.90
2023-09-28T14:29:45.468Z,3.65
2023-09-28T14:32:12.156Z,3.92
2023-09-28T14:34:38.773Z,4.22
2023-09-28T14:37:05.496Z,3.88
2023-09-28T14:39:32.170Z,3.70
2023-09-28T14:41:58.954Z,3.78
2023-09-28T14:44:25.854Z,3.80
2023-09-28T14:46:52.921Z,4.10
2023-09-28T14:49:19.688Z,3.65
2023-09-28T14:51:46.379Z,3.80
2023-09-28T14:54:13.016Z,3.60
2023-09-28T14:56:39.728Z,3.67
2023-09-28T14:59:06.456Z,3.97
2023-09-28T15:01:33.730Z,3.90
2023-09-28T15:04:01.247Z,13.25
2023-09-28T15:06:27.950Z,18.55
2023-09-28T15:08:54.543Z,8.35
2023-09-28T15:11:22.042Z,20.55
2023-09-28T15:13:48.996Z,10.95
2023-09-28T15:16:16.039Z,5.63
2023-09-28T15:18:42.918Z,3.58
2023-09-28T15:21:11.477Z,3.88
2023-09-28T15:23:38.331Z,3.17
2023-09-28T15:26:05.589Z,3.58
2023-09-28T15:28:32.881Z,3.70
2023-09-28T15:30:59.850Z,3.67
2023-09-28T15:33:26.629Z,3.35
2023-09-28T15:35:57.566Z,7.72
2023-09-28T15:38:26.245Z,4.10
2023-09-28T15:40:52.862Z,4.00
2023-09-28T15:43:19.489Z,10.32
2023-09-28T15:45:47.316Z,26.98
2023-09-28T15:48:14.299Z,18.95
2023-09-28T15:50:41.496Z,10.40
2023-09-28T15:53:09.584Z,6.82
2023-09-28T15:55:36.286Z,3.95
2023-09-28T15:58:03.411Z,3.65
2023-09-28T16:00:37.974Z,4.28
2023-09-28T16:03:05.972Z,3.50
2023-09-28T16:05:33.087Z,3.88
2023-09-28T16:08:00.223Z,3.50
2023-09-28T16:10:27.289Z,3.05
2023-09-28T16:12:54.057Z,3.10
2023-09-28T16:15:20.928Z,3.08
2023-09-28T16:17:47.754Z,3.40
2023-09-28T16:20:14.669Z,3.08
2023-09-28T16:22:41.383Z,3.65
2023-09-28T16:25:09.001Z,3.05
2023-09-28T16:27:35.781Z,3.30
2023-09-28T16:30:02.516Z,3.03
2023-09-28T16:32:29.213Z,7.65
2023-09-28T16:34:55.894Z,3.42
2023-09-28T16:37:22.542Z,7.93
2023-09-28T16:39:49.228Z,5.95
2023-09-28T16:42:15.848Z,5.85
2023-09-28T16:44:42.655Z,5.63
2023-09-28T16:47:09.433Z,4.68
2023-09-28T16:49:36.105Z,4.18
2023-09-28T16:52:02.709Z,4.50
2023-09-28T16:54:29.335Z,4.15
2023-09-28T16:56:55.966Z,3.15
2023-09-28T16:59:22.652Z,3.13
2023-09-28T17:01:49.309Z,3.25
2023-09-28T17:04:16.117Z,2.95
2023-09-28T17:06:43.458Z,3.08
2023-09-28T17:09:10.648Z,3.10
2023-09-28T17:11:37.291Z,3.00
2023-09-28T17:14:04.066Z,3.17
2023-09-28T17:16:32.409Z,2.85
2023-09-28T17:18:59.814Z,3.70
2023-09-28T17:21:26.754Z,3.67
2023-09-28T17:23:53.480Z,3.20
2023-09-28T17:26:20.235Z,3.55
2023-09-28T17:28:47.009Z,3.33
2023-09-28T17:31:15.121Z,3.65
2023-09-28T17:33:42.068Z,3.33
2023-09-28T17:36:08.733Z,3.53
2023-09-28T17:38:35.960Z,3.45
2023-09-28T17:41:02.785Z,3.42
2023-09-28T17:43:29.450Z,4.13
2023-09-28T17:45:57.016Z,4.20
2023-09-28T17:48:23.711Z,3.70
2023-09-28T17:50:51.397Z,3.72
2023-09-28T17:53:19.192Z,3.88
2023-09-28T17:55:47.989Z,3.50
2023-09-28T17:58:18.246Z,4.40
2023-09-28T18:00:48.666Z,3.83
2023-09-28T18:03:15.425Z,3.60
2023-09-28T18:05:42.285Z,2.92
2023-09-28T18:08:08.989Z,3.38
2023-09-28T18:10:36.013Z,3.25
2023-09-28T18:13:05.224Z,3.47
2023-09-28T18:15:33.124Z,3.85
2023-09-28T18:17:59.866Z,3.25
2023-09-28T18:20:26.742Z,3.67
2023-09-28T18:22:53.906Z,3.47
2023-09-28T18:25:20.966Z,3.38
2023-09-28T18:27:48.028Z,3.60
2023-09-28T18:30:14.681Z,3.38
2023-09-28T18:32:41.697Z,3.28
2023-09-28T18:35:09.673Z,3.38
2023-09-28T18:37:36.322Z,3.10
2023-09-28T18:40:02.962Z,3.22
2023-09-28T18:42:29.536Z,2.88
2023-09-28T18:44:56.176Z,3.15
2023-09-28T18:47:22.819Z,3.60
2023-09-28T18:49:49.432Z,3.53
2023-09-28T18:52:16.175Z,3.42
2023-09-28T18:54:45.641Z,3.00
2023-09-28T18:57:12.301Z,3.40
2023-09-28T18:59:39.007Z,3.38
2023-09-28T19:02:05.861Z,2.63
2023-09-28T19:04:35.342Z,3.40
2023-09-28T19:07:02.723Z,3.40
2023-09-28T19:09:29.446Z,3.33
2023-09-28T19:11:56.253Z,3.85
2023-09-28T19:14:23.111Z,4.18
2023-09-28T19:16:51.923Z,4.28
2023-09-28T19:19:19.413Z,3.95
2023-09-28T19:21:46.163Z,4.45
2023-09-28T19:24:12.832Z,4.45
2023-09-28T19:26:39.591Z,4.25
2023-09-28T19:29:08.832Z,4.93
2023-09-28T19:31:37.033Z,5.13
2023-09-28T19:34:07.683Z,4.65
2023-09-28T19:36:35.438Z,4.60
2023-09-28T19:39:02.189Z,4.35
2023-09-28T19:41:29.573Z,4.35
2023-09-28T19:43:56.407Z,4.65
2023-09-28T19:46:24.534Z,4.13
2023-09-28T19:48:52.952Z,3.88
2023-09-28T19:51:21.120Z,4.50
2023-09-28T19:53:47.855Z,4.25
2023-09-28T19:56:26.175Z,4.65
2023-09-28T19:58:53.471Z,3.97
2023-09-28T20:01:21.455Z,4.32
2023-09-28T20:03:48.845Z,3.72
2023-09-28T20:06:16.221Z,4.10
2023-09-28T20:08:42.993Z,4.00
2023-09-28T20:11:09.637Z,4.22
2023-09-28T20:13:36.370Z,4.05
2023-09-28T20:16:06.024Z,3.90
2023-09-28T20:18:33.209Z,4.35
2023-09-28T20:21:04.199Z,3.63
2023-09-28T20:23:31.123Z,3.88
2023-09-28T20:25:58.025Z,4.07
2023-09-28T20:28:25.223Z,4.30
2023-09-28T20:30:51.973Z,3.97
2023-09-28T20:33:18.696Z,3.67
2023-09-28T20:35:46.659Z,4.00
2023-09-28T20:38:13.963Z,3.75
2023-09-28T20:40:40.839Z,3.67
2023-09-28T20:43:07.535Z,4.18
2023-09-28T20:45:41.264Z,4.13
2023-09-28T20:48:08.492Z,4.43
2023-09-28T20:50:35.644Z,3.97
2023-09-28T20:53:02.923Z,4.20
2023-09-28T20:55:31.033Z,4.32
2023-09-28T20:57:57.631Z,4.07
2023-09-28T21:00:25.106Z,3.63
2023-09-28T21:02:51.821Z,3.72
2023-09-28T21:05:18.639Z,4.10
2023-09-28T21:07:45.955Z,3.42
2023-09-28T21:10:13.550Z,3.40
2023-09-28T21:12:40.199Z,3.35
2023-09-28T21:15:10.445Z,3.92
2023-09-28T21:17:39.582Z,4.00
2023-09-28T21:20:08.465Z,4.28
2023-09-28T21:22:35.402Z,3.95
2023-09-28T21:25:03.119Z,4.18
2023-09-28T21:27:29.987Z,4.00
2023-09-28T21:29:56.714Z,3.97
2023-09-28T21:32:24.403Z,3.70
2023-09-28T21:34:52.858Z,4.07
2023-09-28T21:37:19.542Z,3.53
2023-09-28T21:39:46.174Z,4.03
2023-09-28T21:42:14.963Z,4.13
2023-09-28T21:44:41.637Z,4.13
2023-09-28T21:47:08.278Z,3.80
2023-09-28T21:49:34.880Z,3.65
2023-09-28T21:52:01.705Z,4.63
2023-09-28T21:54:28.444Z,5.68
2023-09-28T21:56:55.043Z,5.07
2023-09-28T21:59:21.784Z,5.72
2023-09-28T22:01:48.607Z,4.80
2023-09-28T22:04:15.287Z,5.10
2023-09-28T22:06:43.116Z,4.38
2023-09-28T22:09:11.174Z,4.70
2023-09-28T22:11:37.933Z,4.95
2023-09-28T22:14:04.912Z,5.40
2023-09-28T22:16:31.599Z,5.05
2023-09-28T22:18:58.266Z,5.22
2023-09-28T22:21:24.913Z,6.43
2023-09-28T22:23:51.550Z,6.15
2023-09-28T22:26:18.285Z,6.00
2023-09-28T22:28:44.976Z,5.90
2023-09-28T22:31:11.672Z,5.80
2023-09-28T22:33:38.331Z,6.53
2023-09-28T22:36:06.892Z,6.43
2023-09-28T22:38:33.941Z,6.47
2023-09-28T22:41:00.793Z,6.03
2023-09-28T22:43:27.381Z,6.43
2023-09-28T22:45:54.029Z,6.50
2023-09-28T22:48:20.749Z,6.07
2023-09-28T22:50:47.766Z,5.95
2023-09-28T22:53:14.417Z,6.20
2023-09-28T22:55:41.472Z,5.80
2023-09-28T22:58:08.067Z,5.57
2023-09-28T23:00:37.435Z,5.20
2023-09-28T23:03:05.335Z,5.70
2023-09-28T23:08:02.134Z,6.75
2023-09-28T23:10:29.875Z,5.65
2023-09-28T23:12:57.038Z,5.78
2023-09-28T23:15:23.991Z,6.38
2023-09-28T23:17:50.786Z,6.00
2023-09-28T23:20:23.635Z,5.88
2023-09-28T23:22:53.043Z,5.45
2023-09-28T23:25:20.123Z,5.75
2023-09-28T23:27:47.605Z,5.65
2023-09-28T23:30:18.766Z,5.30
2023-09-28T23:32:47.418Z,5.50
2023-09-28T23:35:17.723Z,5.30
2023-09-28T23:37:45.885Z,5.60
2023-09-28T23:40:17.210Z,4.82
2023-09-28T23:42:45.174Z,5.43
2023-09-28T23:45:13.099Z,4.90
2023-09-28T23:47:41.010Z,5.28
2023-09-28T23:50:10.418Z,5.32
2023-09-28T23:52:38.736Z,5.72
2023-09-28T23:55:16.880Z,5.65
2023-09-28T23:57:44.865Z,5.70
